createdAt,value
2018-11-26T00:00:21.839Z,14.35
2018-11-26T00:02:51.102Z,13.18
2018-11-26T00:05:19.920Z,12.10
2018-11-26T00:07:48.712Z,14.93
2018-11-26T00:10:28.423Z,12.63
2018-11-26T00:12:57.325Z,13.20
2018-11-26T00:15:26.287Z,12.07
2018-11-26T00:17:55.323Z,13.60
2018-11-26T00:20:24.168Z,12.78
2018-11-26T00:22:53.080Z,12.43
2018-11-26T00:25:21.956Z,12.78
2018-11-26T00:27:50.757Z,12.70
2018-11-26T00:30:19.651Z,11.18
2018-11-26T00:32:48.566Z,12.13
2018-11-26T00:35:17.483Z,12.58
2018-11-26T00:37:46.349Z,12.75
2018-11-26T00:40:15.162Z,12.20
2018-11-26T00:42:43.978Z,12.03
2018-11-26T00:45:13.095Z,12.23
2018-11-26T00:47:41.889Z,12.35
2018-11-26T00:50:11.319Z,12.20
2018-11-26T00:52:41.005Z,11.35
2018-11-26T00:55:11.094Z,10.95
2018-11-26T00:57:40.014Z,10.80
2018-11-26T01:00:11.606Z,10.70
2018-11-26T01:02:40.480Z,9.93
2018-11-26T01:05:14.262Z,10.63
2018-11-26T01:07:43.090Z,8.93
2018-11-26T01:10:11.901Z,10.60
2018-11-26T01:12:40.838Z,9.00
2018-11-26T01:15:09.699Z,9.40
2018-11-26T01:17:38.531Z,9.23
2018-11-26T01:20:07.395Z,11.20
2018-11-26T01:22:36.232Z,9.35
2018-11-26T01:25:05.075Z,10.75
2018-11-26T01:27:33.883Z,9.63
2018-11-26T01:30:02.589Z,8.68
2018-11-26T01:32:31.376Z,11.00
2018-11-26T01:35:00.209Z,12.05
2018-11-26T01:37:29.006Z,9.88
2018-11-26T01:39:57.905Z,9.35
2018-11-26T01:42:26.703Z,10.68
2018-11-26T01:44:55.493Z,11.18
2018-11-26T01:47:24.248Z,10.18
2018-11-26T01:49:53.077Z,11.57
2018-11-26T01:52:21.822Z,11.10
2018-11-26T01:54:50.734Z,10.20
2018-11-26T01:57:19.625Z,11.20
2018-11-26T01:59:48.450Z,11.10
2018-11-26T02:02:17.264Z,11.48
2018-11-26T02:04:46.146Z,12.68
2018-11-26T02:07:14.917Z,10.88
2018-11-26T02:09:43.794Z,12.80
2018-11-26T02:12:12.620Z,11.85
2018-11-26T02:14:43.967Z,12.65
2018-11-26T02:17:13.509Z,11.70
2018-11-26T02:19:43.042Z,11.85
2018-11-26T02:22:12.494Z,10.65
2018-11-26T02:24:41.809Z,12.35
2018-11-26T02:27:12.147Z,11.43
2018-11-26T02:29:41.704Z,11.85
2018-11-26T02:32:11.228Z,12.03
2018-11-26T02:34:40.815Z,11.65
2018-11-26T02:37:09.710Z,11.60
2018-11-26T02:39:38.525Z,12.73
2018-11-26T02:42:07.379Z,11.80
2018-11-26T02:44:36.193Z,12.30
2018-11-26T02:47:05.080Z,12.18
2018-11-26T02:49:33.948Z,12.70
2018-11-26T02:52:02.746Z,13.05
2018-11-26T02:54:31.491Z,13.40
2018-11-26T02:57:00.338Z,12.15
2018-11-26T02:59:29.074Z,11.08
2018-11-26T03:01:57.890Z,12.25
2018-11-26T03:04:26.666Z,11.97
2018-11-26T03:06:55.438Z,13.90
2018-11-26T03:09:24.276Z,13.83
2018-11-26T03:11:53.226Z,13.93
2018-11-26T03:14:22.034Z,13.20
2018-11-26T03:16:50.950Z,13.78
2018-11-26T03:19:19.753Z,12.70
2018-11-26T03:21:48.684Z,14.50
2018-11-26T03:24:17.495Z,13.60
2018-11-26T03:26:46.342Z,14.90
2018-11-26T03:29:15.178Z,13.90
2018-11-26T03:31:44.039Z,13.85
2018-11-26T03:34:12.910Z,15.60
2018-11-26T03:36:41.759Z,14.10
2018-11-26T03:39:10.664Z,14.85
2018-11-26T03:41:39.455Z,15.23
2018-11-26T03:44:08.230Z,16.93
2018-11-26T03:46:37.019Z,15.28
2018-11-26T03:49:06.065Z,16.52
2018-11-26T03:51:34.938Z,15.15
2018-11-26T03:54:03.824Z,16.90
2018-11-26T03:56:32.706Z,16.07
2018-11-26T03:59:01.880Z,16.95
2018-11-26T04:01:30.707Z,15.40
2018-11-26T04:03:59.494Z,14.50
2018-11-26T04:06:28.324Z,16.42
2018-11-26T04:08:57.370Z,16.73
2018-11-26T04:11:26.185Z,16.73
2018-11-26T04:13:55.027Z,17.65
2018-11-26T04:16:23.859Z,16.90
2018-11-26T04:18:52.661Z,15.35
2018-11-26T04:21:21.500Z,15.80
2018-11-26T04:23:50.267Z,15.28
2018-11-26T04:26:18.999Z,16.52
2018-11-26T04:28:47.866Z,14.43
2018-11-26T04:31:16.613Z,16.00
2018-11-26T04:33:45.612Z,15.53
2018-11-26T04:36:14.459Z,15.38
2018-11-26T04:38:43.766Z,15.68
2018-11-26T04:41:12.594Z,14.00
2018-11-26T04:43:41.408Z,17.15
2018-11-26T04:46:10.212Z,15.98
2018-11-26T04:48:39.070Z,16.25
2018-11-26T04:51:07.913Z,16.15
2018-11-26T04:53:36.758Z,15.03
2018-11-26T04:56:05.868Z,14.95
2018-11-26T04:58:34.693Z,13.95
2018-11-26T05:01:03.563Z,15.68
2018-11-26T05:03:32.448Z,16.73
2018-11-26T05:06:01.316Z,14.93
2018-11-26T05:08:30.094Z,15.68
2018-11-26T05:10:59.928Z,14.53
2018-11-26T05:13:29.457Z,14.38
2018-11-26T05:15:58.382Z,15.75
2018-11-26T05:18:27.418Z,15.23
2018-11-26T05:20:56.300Z,15.00
2018-11-26T05:23:25.315Z,14.28
2018-11-26T05:25:54.616Z,16.02
2018-11-26T05:28:23.434Z,14.45
2018-11-26T05:30:52.385Z,15.10
2018-11-26T05:33:21.365Z,16.32
2018-11-26T05:35:50.947Z,15.48
2018-11-26T05:38:20.191Z,17.02
2018-11-26T05:40:49.032Z,16.05
2018-11-26T05:43:17.811Z,16.97
2018-11-26T05:45:46.898Z,16.77
2018-11-26T05:48:15.697Z,15.55
2018-11-26T05:50:44.579Z,17.42
2018-11-26T05:53:13.327Z,15.18
2018-11-26T05:55:42.206Z,16.45
2018-11-26T05:58:11.110Z,16.57
2018-11-26T06:00:39.942Z,17.45
2018-11-26T06:03:08.764Z,16.95
2018-11-26T06:05:37.836Z,17.25
2018-11-26T06:08:06.681Z,16.25
2018-11-26T06:10:35.556Z,17.45
2018-11-26T06:13:04.445Z,16.60
2018-11-26T06:15:33.364Z,18.50
2018-11-26T06:18:02.311Z,17.02
2018-11-26T06:20:31.234Z,17.65
2018-11-26T06:23:00.227Z,19.37
2018-11-26T06:25:29.182Z,17.17
2018-11-26T06:27:58.053Z,17.87
2018-11-26T06:30:49.108Z,18.45
2018-11-26T06:33:20.817Z,18.62
2018-11-26T06:35:49.802Z,16.75
2018-11-26T06:38:19.308Z,17.77
2018-11-26T06:40:48.118Z,19.57
2018-11-26T06:43:17.467Z,16.30
2018-11-26T06:45:46.070Z,18.37
2018-11-26T06:48:14.879Z,17.50
2018-11-26T06:50:43.686Z,17.85
2018-11-26T06:53:18.814Z,16.60
2018-11-26T06:55:47.826Z,17.50
2018-11-26T06:58:16.602Z,19.48
2018-11-26T07:00:45.476Z,17.23
2018-11-26T07:03:14.225Z,17.40
2018-11-26T07:05:43.156Z,17.60
2018-11-26T07:08:12.019Z,17.85
2018-11-26T07:10:40.867Z,17.35
2018-11-26T07:13:09.710Z,16.40
2018-11-26T07:15:39.227Z,17.25
2018-11-26T07:18:08.846Z,20.08
2018-11-26T07:20:37.718Z,17.75
2018-11-26T07:23:06.625Z,18.25
2018-11-26T07:25:35.523Z,19.07
2018-11-26T07:28:06.841Z,17.70
2018-11-26T07:30:35.843Z,22.27
2018-11-26T07:33:05.353Z,18.85
2018-11-26T07:35:34.420Z,20.15
2018-11-26T07:38:03.322Z,18.20
2018-11-26T07:40:32.346Z,18.77
2018-11-26T07:43:06.598Z,17.77
2018-11-26T07:45:35.593Z,18.87
2018-11-26T07:48:04.721Z,19.65
2018-11-26T07:50:35.501Z,21.30
2018-11-26T07:53:04.756Z,18.75
2018-11-26T07:55:33.784Z,19.27
2018-11-26T07:58:02.873Z,17.80
2018-11-26T08:00:33.005Z,19.23
2018-11-26T08:03:02.044Z,19.60
2018-11-26T08:05:32.197Z,19.17
2018-11-26T08:08:02.380Z,19.95
2018-11-26T08:10:31.864Z,19.80
2018-11-26T08:13:00.963Z,18.07
2018-11-26T08:15:30.340Z,20.35
2018-11-26T08:17:59.512Z,20.88
2018-11-26T08:20:28.595Z,17.85
2018-11-26T08:22:58.015Z,18.57
2018-11-26T08:25:27.037Z,21.75
2018-11-26T08:27:56.010Z,21.07
2018-11-26T08:30:26.961Z,19.15
2018-11-26T08:32:57.889Z,19.15
2018-11-26T08:35:27.703Z,22.67
2018-11-26T08:38:01.754Z,20.62
2018-11-26T08:40:35.138Z,21.35
2018-11-26T08:43:07.340Z,20.80
2018-11-26T08:45:37.679Z,20.62
2018-11-26T08:48:12.387Z,19.50
2018-11-26T08:50:42.420Z,21.12
2018-11-26T08:53:11.601Z,20.80
2018-11-26T08:55:40.813Z,20.45
2018-11-26T08:58:10.831Z,22.07
2018-11-26T09:00:41.736Z,20.43
2018-11-26T09:03:20.491Z,20.35
2018-11-26T09:05:54.895Z,22.55
2018-11-26T09:08:23.758Z,22.22
2018-11-26T09:10:56.441Z,21.25
2018-11-26T09:13:25.420Z,20.95
2018-11-26T09:15:54.607Z,22.30
2018-11-26T09:18:24.635Z,20.75
2018-11-26T09:20:53.701Z,19.65
2018-11-26T09:23:22.761Z,21.05
2018-11-26T09:25:55.178Z,20.48
2018-11-26T09:28:26.320Z,20.05
2018-11-26T09:30:55.376Z,21.62
2018-11-26T09:33:24.389Z,21.30
2018-11-26T09:35:53.285Z,22.85
2018-11-26T09:38:22.351Z,22.22
2018-11-26T09:40:51.389Z,20.08
2018-11-26T09:43:20.263Z,20.80
2018-11-26T09:45:49.287Z,23.32
2018-11-26T09:48:18.254Z,21.40
2018-11-26T09:50:47.330Z,24.45
2018-11-26T09:53:16.501Z,22.93
2018-11-26T09:55:45.398Z,22.77
2018-11-26T09:58:14.436Z,23.35
2018-11-26T10:00:43.351Z,21.70
2018-11-26T10:03:12.467Z,21.37
2018-11-26T10:05:41.304Z,22.20
2018-11-26T10:08:10.210Z,22.93
2018-11-26T10:10:39.086Z,20.50
2018-11-26T10:13:08.226Z,21.85
2018-11-26T10:15:37.209Z,22.00
2018-11-26T10:18:06.337Z,20.70
2018-11-26T10:20:36.682Z,21.95
2018-11-26T10:23:06.380Z,20.97
2018-11-26T10:25:35.388Z,22.13
2018-11-26T10:28:04.481Z,22.40
2018-11-26T10:30:33.320Z,23.45
2018-11-26T10:33:02.559Z,21.12
2018-11-26T10:35:31.778Z,20.72
2018-11-26T10:38:01.468Z,22.13
2018-11-26T10:40:30.842Z,22.27
2018-11-26T10:42:59.817Z,22.60
2018-11-26T10:45:28.821Z,20.08
2018-11-26T10:47:57.916Z,21.20
2018-11-26T10:50:27.342Z,21.50
2018-11-26T10:52:57.665Z,25.43
2018-11-26T10:55:29.348Z,22.05
2018-11-26T10:57:58.450Z,22.45
2018-11-26T11:00:32.848Z,22.75
2018-11-26T11:03:01.962Z,22.17
2018-11-26T11:05:31.006Z,21.62
2018-11-26T11:08:00.119Z,20.00
2018-11-26T11:10:30.332Z,22.60
2018-11-26T11:12:59.434Z,20.88
2018-11-26T11:15:28.463Z,20.70
2018-11-26T11:17:57.522Z,22.35
2018-11-26T11:20:27.932Z,20.15
2018-11-26T11:22:56.832Z,21.75
2018-11-26T11:25:26.229Z,22.10
2018-11-26T11:27:56.318Z,19.48
2018-11-26T11:30:26.733Z,21.77
2018-11-26T11:32:55.773Z,22.70
2018-11-26T11:35:24.625Z,22.73
2018-11-26T11:37:54.291Z,25.40
2018-11-26T11:40:31.823Z,22.87
2018-11-26T11:43:01.325Z,21.80
2018-11-26T11:45:31.333Z,20.95
2018-11-26T11:48:00.433Z,23.32
2018-11-26T11:50:29.495Z,21.95
2018-11-26T11:52:59.391Z,23.98
2018-11-26T11:55:28.454Z,23.32
2018-11-26T11:57:57.420Z,24.20
2018-11-26T12:00:38.985Z,24.32
2018-11-26T12:03:09.206Z,22.60
2018-11-26T12:05:38.197Z,23.30
2018-11-26T12:08:08.136Z,23.32
2018-11-26T12:10:37.717Z,22.55
2018-11-26T12:13:08.545Z,25.20
2018-11-26T12:15:39.817Z,24.25
2018-11-26T12:18:09.279Z,25.40
2018-11-26T12:20:39.185Z,25.05
2018-11-26T12:23:08.843Z,23.55
2018-11-26T12:25:38.006Z,24.25
2018-11-26T12:28:07.407Z,26.80
2018-11-26T12:30:38.615Z,28.02
2018-11-26T12:33:07.743Z,33.15
2018-11-26T12:35:39.533Z,25.43
2018-11-26T12:38:09.627Z,25.08
2018-11-26T12:40:38.908Z,24.72
2018-11-26T12:43:08.585Z,25.35
2018-11-26T12:45:40.789Z,26.20
2018-11-26T12:48:10.432Z,24.20
2018-11-26T12:50:40.043Z,24.98
2018-11-26T12:53:09.571Z,28.17
2018-11-26T12:55:44.029Z,23.73
2018-11-26T12:58:13.084Z,23.75
2018-11-26T13:00:42.695Z,23.62
2018-11-26T13:03:13.642Z,25.00
2018-11-26T13:05:42.631Z,22.37
2018-11-26T13:08:11.777Z,22.42
2018-11-26T13:10:40.747Z,24.70
2018-11-26T13:13:10.754Z,23.07
2018-11-26T13:15:39.715Z,21.85
2018-11-26T13:18:11.546Z,23.83
2018-11-26T13:20:40.666Z,23.40
2018-11-26T13:23:11.372Z,21.10
2018-11-26T13:25:42.101Z,22.40
2018-11-26T13:28:11.916Z,21.15
2018-11-26T13:30:46.356Z,23.57
2018-11-26T13:33:17.164Z,22.17
2018-11-26T13:35:47.098Z,21.48
2018-11-26T13:38:16.129Z,22.37
2018-11-26T13:40:45.081Z,23.30
2018-11-26T13:43:17.175Z,21.80
2018-11-26T13:45:47.476Z,23.45
2018-11-26T13:48:17.907Z,20.05
2018-11-26T13:50:53.650Z,21.12
2018-11-26T13:53:22.674Z,21.17
2018-11-26T13:55:52.146Z,20.60
2018-11-26T13:58:21.726Z,25.02
2018-11-26T14:00:50.767Z,21.00
2018-11-26T14:03:19.741Z,22.82
2018-11-26T14:05:49.616Z,21.30
2018-11-26T14:08:19.993Z,24.57
2018-11-26T14:10:50.856Z,24.27
2018-11-26T14:13:22.305Z,25.43
2018-11-26T14:15:52.492Z,24.90
2018-11-26T14:18:21.780Z,25.08
2018-11-26T14:20:51.074Z,23.22
2018-11-26T14:23:20.183Z,24.07
2018-11-26T14:25:49.575Z,22.05
2018-11-26T14:28:18.748Z,24.25
2018-11-26T14:30:47.711Z,24.87
2018-11-26T14:33:18.021Z,24.23
2018-11-26T14:35:49.017Z,23.40
2018-11-26T14:38:19.958Z,25.15
2018-11-26T14:40:52.499Z,24.95
2018-11-26T14:43:21.588Z,25.88
2018-11-26T14:45:50.620Z,25.70
2018-11-26T14:48:19.967Z,27.37
2018-11-26T14:50:49.178Z,23.22
2018-11-26T14:53:18.377Z,25.80
2018-11-26T14:55:47.509Z,25.30
2018-11-26T14:58:17.517Z,27.02
2018-11-26T15:00:49.517Z,26.50
2018-11-26T15:06:11.124Z,24.57
2018-11-26T15:08:40.364Z,25.20
2018-11-26T15:11:09.741Z,26.05
2018-11-26T15:13:38.805Z,26.73
2018-11-26T15:16:08.019Z,24.47
2018-11-26T15:18:37.007Z,25.20
2018-11-26T15:21:06.281Z,22.98
2018-11-26T15:23:46.842Z,25.55
2018-11-26T15:26:15.767Z,27.67
2018-11-26T15:28:44.920Z,27.15
2018-11-26T15:31:14.026Z,26.20
2018-11-26T15:33:43.369Z,26.87
2018-11-26T15:36:12.978Z,26.80
2018-11-26T15:38:42.375Z,27.20
2018-11-26T15:41:11.531Z,24.75
2018-11-26T15:43:40.832Z,27.42
2018-11-26T15:46:10.146Z,27.30
2018-11-26T15:48:39.532Z,27.13
2018-11-26T15:51:08.664Z,27.80
2018-11-26T15:53:37.540Z,27.75
2018-11-26T15:56:06.661Z,27.40
2018-11-26T15:58:35.627Z,28.50
2018-11-26T16:01:04.714Z,28.52
2018-11-26T16:03:33.798Z,29.45
2018-11-26T16:06:02.889Z,26.75
2018-11-26T16:08:31.854Z,26.35
2018-11-26T16:11:00.751Z,26.27
2018-11-26T16:13:29.789Z,29.40
2018-11-26T16:15:58.955Z,27.32
2018-11-26T16:18:28.114Z,27.22
2018-11-26T16:20:57.011Z,28.25
2018-11-26T16:23:26.020Z,26.10
2018-11-26T16:25:54.968Z,26.02
2018-11-26T16:28:24.462Z,25.82
2018-11-26T16:30:53.538Z,27.35
2018-11-26T16:33:22.510Z,27.52
2018-11-26T16:35:51.458Z,26.65
2018-11-26T16:38:20.507Z,26.15
2018-11-26T16:40:49.553Z,26.73
2018-11-26T16:43:18.591Z,25.15
2018-11-26T16:45:47.524Z,25.68
2018-11-26T16:48:16.500Z,24.63
2018-11-26T16:50:45.522Z,27.10
2018-11-26T16:53:19.239Z,26.75
2018-11-26T16:55:44.066Z,26.77
2018-11-26T16:58:13.684Z,26.40
2018-11-26T17:00:42.855Z,24.18
2018-11-26T17:03:12.006Z,23.95
2018-11-26T17:05:42.331Z,23.73
2018-11-26T17:08:15.691Z,25.52
2018-11-26T17:10:46.409Z,26.10
2018-11-26T17:13:15.515Z,25.32
2018-11-26T17:15:44.482Z,24.63
2018-11-26T17:18:13.490Z,23.35
2018-11-26T17:20:42.384Z,24.00
2018-11-26T17:23:11.273Z,23.05
2018-11-26T17:25:40.243Z,21.48
2018-11-26T17:28:09.193Z,23.73
2018-11-26T17:30:39.154Z,24.45
2018-11-26T17:33:09.848Z,20.50
2018-11-26T17:35:38.658Z,21.50
2018-11-26T17:38:07.844Z,21.02
2018-11-26T17:40:37.356Z,23.70
2018-11-26T17:43:07.287Z,22.93
2018-11-26T17:45:36.204Z,20.62
2018-11-26T17:48:05.510Z,24.50
2018-11-26T17:50:37.856Z,22.50
2018-11-26T17:53:09.339Z,22.75
2018-11-26T17:55:45.448Z,21.45
2018-11-26T17:58:14.290Z,23.70
2018-11-26T18:00:43.448Z,22.85
2018-11-26T18:03:14.226Z,23.25
2018-11-26T18:05:43.224Z,23.55
2018-11-26T18:08:14.774Z,24.50
2018-11-26T18:10:44.071Z,24.27
2018-11-26T18:13:13.369Z,23.05
2018-11-26T18:15:42.374Z,25.50
2018-11-26T18:18:13.584Z,20.97
2018-11-26T18:20:43.133Z,21.48
2018-11-26T18:23:12.571Z,25.62
2018-11-26T18:25:42.030Z,24.45
2018-11-26T18:28:13.889Z,25.60
2018-11-26T18:30:47.009Z,23.62
2018-11-26T18:33:16.051Z,25.85
2018-11-26T18:35:46.679Z,23.80
2018-11-26T18:38:15.829Z,26.27
2018-11-26T18:40:46.603Z,25.88
2018-11-26T18:43:16.320Z,25.52
2018-11-26T18:45:45.405Z,27.22
2018-11-26T18:48:16.056Z,27.82
2018-11-26T18:50:45.349Z,28.07
2018-11-26T18:53:14.483Z,27.77
2018-11-26T18:55:43.899Z,27.62
2018-11-26T18:58:13.371Z,26.42
2018-11-26T19:00:45.560Z,26.50
2018-11-26T19:03:20.756Z,27.55
2018-11-26T19:05:51.703Z,29.30
2018-11-26T19:08:20.759Z,27.62
2018-11-26T19:10:52.553Z,24.65
2018-11-26T19:13:23.392Z,25.10
2018-11-26T19:15:54.250Z,26.75
2018-11-26T19:18:26.968Z,27.93
2018-11-26T19:20:56.078Z,25.60
2018-11-26T19:23:25.097Z,25.17
2018-11-26T19:25:54.556Z,24.63
2018-11-26T19:28:23.610Z,24.80
2018-11-26T19:30:52.724Z,26.00
2018-11-26T19:33:21.680Z,24.92
2018-11-26T19:35:50.708Z,24.52
2018-11-26T19:38:20.158Z,25.20
2018-11-26T19:40:49.619Z,23.90
2018-11-26T19:43:19.329Z,23.35
2018-11-26T19:45:48.866Z,24.35
2018-11-26T19:48:18.299Z,21.80
2018-11-26T19:50:47.865Z,23.95
2018-11-26T19:53:16.880Z,24.25
2018-11-26T19:55:45.972Z,25.43
2018-11-26T19:58:14.900Z,24.20
2018-11-26T20:00:43.699Z,23.65
2018-11-26T20:03:18.704Z,23.73
2018-11-26T20:06:12.145Z,25.70
2018-11-26T20:08:41.856Z,24.07
2018-11-26T20:11:11.559Z,26.52
2018-11-26T20:13:40.883Z,26.00
2018-11-26T20:16:22.211Z,24.92
2018-11-26T20:18:51.372Z,26.68
2018-11-26T20:21:20.564Z,25.30
2018-11-26T20:23:49.435Z,23.85
2018-11-26T20:26:18.431Z,24.20
2018-11-26T20:28:47.415Z,26.05
2018-11-26T20:31:16.285Z,26.25
2018-11-26T20:33:45.291Z,26.02
2018-11-26T20:36:15.225Z,24.43
2018-11-26T20:38:44.373Z,25.72
2018-11-26T20:41:14.071Z,25.15
2018-11-26T20:43:42.947Z,24.92
2018-11-26T20:46:12.272Z,25.43
2018-11-26T20:48:41.596Z,28.00
2018-11-26T20:51:10.503Z,26.95
2018-11-26T20:53:39.690Z,27.93
2018-11-26T20:56:18.393Z,28.90
2018-11-26T20:58:47.726Z,24.30
2018-11-26T21:01:16.761Z,26.37
2018-11-26T21:03:45.648Z,26.97
2018-11-26T21:06:15.013Z,23.27
2018-11-26T21:08:43.972Z,26.27
2018-11-26T21:11:13.197Z,27.50
2018-11-26T21:13:42.093Z,26.07
2018-11-26T21:16:11.048Z,26.57
2018-11-26T21:18:39.931Z,24.72
2018-11-26T21:21:09.101Z,26.90
2018-11-26T21:23:38.002Z,27.52
2018-11-26T21:26:08.250Z,28.65
2018-11-26T21:28:37.139Z,26.17
2018-11-26T21:31:06.455Z,27.27
2018-11-26T21:33:35.361Z,24.80
2018-11-26T21:36:04.214Z,26.07
2018-11-26T21:38:34.202Z,27.52
2018-11-26T21:41:03.167Z,24.92
2018-11-26T21:43:33.081Z,24.82
2018-11-26T21:46:02.616Z,24.98
2018-11-26T21:48:31.525Z,25.72
2018-11-26T21:51:01.629Z,26.70
2018-11-26T21:53:30.490Z,24.75
2018-11-26T21:55:59.418Z,27.17
2018-11-26T21:58:29.768Z,24.37
2018-11-26T22:00:59.863Z,24.40
2018-11-26T22:03:30.607Z,23.83
2018-11-26T22:05:57.671Z,24.57
2018-11-26T22:08:26.490Z,26.85
2018-11-26T22:10:55.823Z,25.30
2018-11-26T22:13:24.968Z,24.60
2018-11-26T22:15:53.858Z,27.95
2018-11-26T22:18:22.747Z,23.55
2018-11-26T22:20:51.631Z,24.05
2018-11-26T22:23:20.538Z,26.30
2018-11-26T22:25:49.377Z,23.25
2018-11-26T22:28:18.267Z,24.18
2018-11-26T22:30:47.199Z,23.30
2018-11-26T22:33:16.093Z,24.90
2018-11-26T22:35:44.945Z,24.10
2018-11-26T22:38:14.380Z,24.47
2018-11-26T22:40:43.227Z,23.57
2018-11-26T22:43:12.063Z,23.40
2018-11-26T22:45:40.956Z,24.43
2018-11-26T22:48:12.858Z,25.05
2018-11-26T22:50:42.927Z,25.80
2018-11-26T22:53:11.904Z,23.05
2018-11-26T22:55:40.913Z,23.77
2018-11-26T22:58:12.532Z,23.57
2018-11-26T23:00:59.165Z,22.80
2018-11-26T23:03:28.174Z,23.35
2018-11-26T23:05:56.975Z,21.50
2018-11-26T23:08:25.768Z,22.55
2018-11-26T23:10:54.584Z,23.75
2018-11-26T23:13:23.432Z,23.18
2018-11-26T23:15:52.259Z,23.70
2018-11-26T23:18:21.098Z,23.00
2018-11-26T23:20:49.896Z,23.52
2018-11-26T23:23:18.821Z,22.73
2018-11-26T23:25:47.919Z,23.30
2018-11-26T23:28:16.763Z,23.10
2018-11-26T23:30:45.545Z,22.70
2018-11-26T23:33:14.420Z,22.00
2018-11-26T23:35:43.287Z,21.30
2018-11-26T23:38:12.161Z,22.10
2018-11-26T23:40:41.061Z,23.70
2018-11-26T23:43:09.873Z,21.57
2018-11-26T23:45:38.700Z,23.30
2018-11-26T23:48:07.584Z,22.22
2018-11-26T23:50:37.157Z,20.30
2018-11-26T23:53:07.166Z,21.52
2018-11-26T23:55:35.961Z,20.40
2018-11-26T23:58:04.905Z,20.40
